createdAt,value
2022-09-07T00:01:11.853Z,17.10
2022-09-07T00:03:39.132Z,17.10
2022-09-07T00:06:09.746Z,17.10
2022-09-07T00:08:37.852Z,17.00
2022-09-07T00:11:10.689Z,17.00
2022-09-07T00:13:41.163Z,17.00
2022-09-07T00:16:24.672Z,17.00
2022-09-07T00:18:55.775Z,17.00
2022-09-07T00:21:27.585Z,16.90
2022-09-07T00:23:55.595Z,16.90
2022-09-07T00:26:30.037Z,16.90
2022-09-07T00:29:03.338Z,16.90
2022-09-07T00:31:31.509Z,16.90
2022-09-07T00:34:01.510Z,16.80
2022-09-07T00:36:29.155Z,16.80
2022-09-07T00:38:56.495Z,16.80
2022-09-07T00:41:24.431Z,16.80
2022-09-07T00:44:19.963Z,16.80
2022-09-07T00:46:47.408Z,16.70
2022-09-07T00:49:22.046Z,16.70
2022-09-07T00:51:54.865Z,16.70
2022-09-07T00:54:30.236Z,16.70
2022-09-07T00:56:57.819Z,16.70
2022-09-07T00:59:34.334Z,16.70
2022-09-07T01:02:02.530Z,16.70
2022-09-07T01:04:35.055Z,16.70
2022-09-07T01:07:05.613Z,16.60
2022-09-07T01:09:36.130Z,16.60
2022-09-07T01:12:04.720Z,16.60
2022-09-07T01:14:41.417Z,16.60
2022-09-07T01:17:34.908Z,16.60
2022-09-07T01:20:36.474Z,16.60
2022-09-07T01:24:10.554Z,16.60
2022-09-07T01:27:02.312Z,16.50
2022-09-07T01:29:35.976Z,16.60
2022-09-07T01:33:03.436Z,16.50
2022-09-07T01:35:47.868Z,16.50
2022-09-07T01:38:52.361Z,16.50
2022-09-07T01:41:44.148Z,16.50
2022-09-07T01:44:23.355Z,16.50
2022-09-07T01:47:13.492Z,16.50
2022-09-07T01:50:02.010Z,16.50
2022-09-07T01:52:44.372Z,16.40
2022-09-07T01:55:24.556Z,16.40
2022-09-07T01:58:28.013Z,16.40
2022-09-07T02:01:13.080Z,16.40
2022-09-07T02:04:10.807Z,16.40
2022-09-07T02:07:09.648Z,16.40
2022-09-07T02:09:54.441Z,16.30
2022-09-07T02:12:35.213Z,16.30
2022-09-07T02:15:23.826Z,16.30
2022-09-07T02:17:58.073Z,16.30
2022-09-07T02:20:31.547Z,16.30
2022-09-07T02:23:04.282Z,16.30
2022-09-07T02:25:44.517Z,16.30
2022-09-07T02:28:20.756Z,16.30
2022-09-07T02:30:48.335Z,16.20
2022-09-07T02:33:15.535Z,16.20
2022-09-07T02:35:42.610Z,16.10
2022-09-07T02:38:13.394Z,16.10
2022-09-07T02:40:40.693Z,16.10
2022-09-07T02:43:12.120Z,16.10
2022-09-07T02:46:20.889Z,16.10
2022-09-07T02:49:05.327Z,16.10
2022-09-07T02:51:42.833Z,16.00
2022-09-07T02:54:39.009Z,16.00
2022-09-07T02:57:15.645Z,16.00
2022-09-07T03:00:10.168Z,16.00
2022-09-07T03:03:16.316Z,16.00
2022-09-07T03:05:50.072Z,16.00
2022-09-07T03:08:31.556Z,15.90
2022-09-07T03:10:59.918Z,15.90
2022-09-07T03:13:29.693Z,15.90
2022-09-07T03:16:00.046Z,15.90
2022-09-07T03:18:28.942Z,15.90
2022-09-07T03:20:56.793Z,15.90
2022-09-07T03:23:27.062Z,15.90
2022-09-07T03:25:54.333Z,15.80
2022-09-07T03:28:21.428Z,15.80
2022-09-07T03:30:48.743Z,15.80
2022-09-07T03:33:17.244Z,15.80
2022-09-07T03:35:59.861Z,15.80
2022-09-07T03:38:27.119Z,15.70
2022-09-07T03:41:03.755Z,15.70
2022-09-07T03:43:34.723Z,15.70
2022-09-07T03:46:07.082Z,15.80
2022-09-07T03:48:39.369Z,15.70
2022-09-07T03:51:10.263Z,15.70
2022-09-07T03:53:42.206Z,15.60
2022-09-07T03:56:19.538Z,15.60
2022-09-07T03:58:49.038Z,15.60
2022-09-07T04:01:24.033Z,15.60
2022-09-07T04:03:53.095Z,15.60
2022-09-07T04:06:20.679Z,15.50
2022-09-07T04:08:48.313Z,15.50
2022-09-07T04:11:18.840Z,15.50
2022-09-07T04:13:46.616Z,15.50
2022-09-07T04:16:20.829Z,15.50
2022-09-07T04:18:54.733Z,15.50
2022-09-07T04:21:23.920Z,15.50
2022-09-07T04:23:54.072Z,15.50
2022-09-07T04:26:31.352Z,15.50
2022-09-07T04:29:01.843Z,15.50
2022-09-07T04:31:29.551Z,15.50
2022-09-07T04:33:56.793Z,15.50
2022-09-07T04:36:26.915Z,15.50
2022-09-07T04:39:03.988Z,15.50
2022-09-07T04:41:33.404Z,15.50
2022-09-07T04:44:03.417Z,15.50
2022-09-07T04:46:34.587Z,15.50
2022-09-07T04:49:08.705Z,15.50
2022-09-07T04:51:42.566Z,15.50
2022-09-07T04:54:10.777Z,15.50
2022-09-07T04:56:37.924Z,15.50
2022-09-07T04:59:08.329Z,15.40
2022-09-07T05:01:35.663Z,15.50
2022-09-07T05:04:06.220Z,15.40
2022-09-07T05:06:34.497Z,15.40
2022-09-07T05:09:01.929Z,15.50
2022-09-07T05:11:30.180Z,15.50
2022-09-07T05:14:02.720Z,15.50
2022-09-07T05:16:31.396Z,15.50
2022-09-07T05:19:02.552Z,15.50
2022-09-07T05:21:33.370Z,15.60
2022-09-07T05:24:05.531Z,15.60
2022-09-07T05:26:37.182Z,15.60
2022-09-07T05:31:54.114Z,15.60
2022-09-07T05:36:56.024Z,15.70
2022-09-07T05:39:23.585Z,15.80
2022-09-07T05:41:50.827Z,15.80
2022-09-07T05:47:06.966Z,15.90
2022-09-07T05:49:37.664Z,15.90
2022-09-07T05:52:05.051Z,16.00
2022-09-07T05:54:32.375Z,16.00
2022-09-07T05:56:59.523Z,16.10
2022-09-07T05:59:29.913Z,16.20
2022-09-07T06:01:57.057Z,16.20
2022-09-07T06:04:26.994Z,16.30
2022-09-07T06:12:29.127Z,16.40
2022-09-07T06:14:56.283Z,16.50
2022-09-07T06:17:23.435Z,16.60
2022-09-07T06:19:50.679Z,16.60
2022-09-07T06:22:26.716Z,16.80
2022-09-07T06:24:57.335Z,16.80
2022-09-07T06:27:24.861Z,16.90
2022-09-07T06:29:52.457Z,17.00
2022-09-07T06:35:15.639Z,17.10
2022-09-07T06:37:46.040Z,17.20
2022-09-07T06:40:13.264Z,17.20
2022-09-07T06:42:40.814Z,17.30
2022-09-07T06:45:14.230Z,17.40
2022-09-07T06:47:41.500Z,17.50
2022-09-07T06:50:09.635Z,17.50
2022-09-07T06:55:27.941Z,17.70
2022-09-07T06:57:55.023Z,17.70
2022-09-07T07:00:22.213Z,17.80
2022-09-07T07:02:52.828Z,17.90
2022-09-07T07:05:20.057Z,18.00
2022-09-07T07:07:47.683Z,18.00
2022-09-07T07:10:14.799Z,18.10
2022-09-07T07:15:09.041Z,18.30
2022-09-07T07:17:36.690Z,18.40
2022-09-07T07:20:07.900Z,18.50
2022-09-07T07:22:50.219Z,18.60
2022-09-07T07:25:17.938Z,18.70
2022-09-07T07:27:46.418Z,18.80
2022-09-07T07:30:18.369Z,18.90
2022-09-07T07:32:46.186Z,19.00
2022-09-07T07:35:14.538Z,19.10
2022-09-07T07:37:41.729Z,19.10
2022-09-07T07:40:15.136Z,19.10
2022-09-07T07:42:46.856Z,19.20
2022-09-07T07:48:01.955Z,19.40
2022-09-07T07:50:32.894Z,19.40
2022-09-07T07:55:47.867Z,19.60
2022-09-07T07:58:15.124Z,19.70
2022-09-07T08:00:54.243Z,19.70
2022-09-07T08:03:23.820Z,19.80
2022-09-07T08:05:51.151Z,19.90
2022-09-07T08:08:18.652Z,20.00
2022-09-07T08:10:47.311Z,20.10
2022-09-07T08:13:16.002Z,20.20
2022-09-07T08:15:46.367Z,20.20
2022-09-07T08:18:15.898Z,20.30
2022-09-07T08:20:44.152Z,20.40
2022-09-07T08:23:15.265Z,20.40
2022-09-07T08:25:53.576Z,20.50
2022-09-07T08:28:23.489Z,20.60
2022-09-07T08:30:50.651Z,20.70
2022-09-07T08:33:17.971Z,20.80
2022-09-07T08:36:05.971Z,20.90
2022-09-07T08:38:35.201Z,20.90
2022-09-07T08:41:20.039Z,21.00
2022-09-07T08:43:58.786Z,21.20
2022-09-07T08:46:34.741Z,21.20
2022-09-07T08:49:16.420Z,21.30
2022-09-07T08:52:12.319Z,21.40
2022-09-07T08:54:44.248Z,21.40
2022-09-07T08:57:22.152Z,21.60
2022-09-07T09:00:07.313Z,21.60
2022-09-07T09:02:43.115Z,21.70
2022-09-07T09:05:44.682Z,21.80
2022-09-07T09:08:41.036Z,21.90
2022-09-07T09:11:33.711Z,22.10
2022-09-07T09:14:38.196Z,22.10
2022-09-07T09:17:26.123Z,22.20
2022-09-07T09:20:13.547Z,22.30
2022-09-07T09:22:40.858Z,22.40
2022-09-07T09:25:30.261Z,22.50
2022-09-07T09:27:57.440Z,22.60
2022-09-07T09:30:25.278Z,22.60
2022-09-07T09:33:22.231Z,22.70
2022-09-07T09:35:52.781Z,22.80
2022-09-07T09:38:35.984Z,22.90
2022-09-07T09:41:15.005Z,22.90
2022-09-07T09:43:58.201Z,23.00
2022-09-07T09:46:35.439Z,23.10
2022-09-07T09:49:20.144Z,23.20
2022-09-07T09:54:43.489Z,23.30
2022-09-07T09:57:37.052Z,23.40
2022-09-07T10:00:27.866Z,23.50
2022-09-07T10:05:54.416Z,23.60
2022-09-07T10:08:33.411Z,23.70
2022-09-07T10:11:06.450Z,23.80
2022-09-07T10:13:46.855Z,23.90
2022-09-07T10:16:17.441Z,24.10
2022-09-07T10:18:58.451Z,24.20
2022-09-07T10:21:31.782Z,24.40
2022-09-07T10:24:04.776Z,24.40
2022-09-07T10:26:39.284Z,24.50
2022-09-07T10:29:36.673Z,24.50
2022-09-07T10:32:39.852Z,24.60
2022-09-07T10:35:26.976Z,24.80
2022-09-07T10:38:04.695Z,25.00
2022-09-07T10:40:56.575Z,25.10
2022-09-07T10:43:47.246Z,25.20
2022-09-07T10:46:57.010Z,25.30
2022-09-07T10:49:30.595Z,25.40
2022-09-07T10:52:13.884Z,25.40
2022-09-07T10:55:11.105Z,25.30
2022-09-07T10:58:13.246Z,25.30
2022-09-07T11:01:10.711Z,25.30
2022-09-07T11:04:24.548Z,25.30
2022-09-07T11:07:08.740Z,25.40
2022-09-07T11:10:07.979Z,25.50
2022-09-07T11:12:38.869Z,25.60
2022-09-07T11:15:12.885Z,25.70
2022-09-07T11:18:13.998Z,25.80
2022-09-07T11:20:55.520Z,25.80
2022-09-07T11:23:37.812Z,26.00
2022-09-07T11:26:37.455Z,26.00
2022-09-07T11:29:34.687Z,26.10
2022-09-07T11:32:22.880Z,26.20
2022-09-07T11:35:03.891Z,26.30
2022-09-07T11:37:59.272Z,26.40
2022-09-07T11:41:15.366Z,26.40
2022-09-07T11:44:00.855Z,26.50
2022-09-07T11:46:56.403Z,26.70
2022-09-07T11:49:26.033Z,26.80
2022-09-07T11:52:10.380Z,27.00
2022-09-07T11:54:55.509Z,27.10
2022-09-07T11:57:54.917Z,27.20
2022-09-07T12:00:57.374Z,27.40
2022-09-07T12:03:38.204Z,27.50
2022-09-07T12:06:15.392Z,27.60
2022-09-07T12:09:37.117Z,27.60
2022-09-07T12:12:32.393Z,27.70
2022-09-07T12:16:03.386Z,27.70
2022-09-07T12:18:54.163Z,27.70
2022-09-07T12:21:43.340Z,27.80
2022-09-07T12:24:37.243Z,27.90
2022-09-07T12:27:22.425Z,28.00
2022-09-07T12:29:58.427Z,28.00
2022-09-07T12:32:55.615Z,28.10
2022-09-07T12:35:42.856Z,28.20
2022-09-07T12:38:19.117Z,28.30
2022-09-07T12:41:20.560Z,28.40
2022-09-07T12:43:50.683Z,28.50
2022-09-07T12:46:53.503Z,28.50
2022-09-07T12:49:53.480Z,28.70
2022-09-07T12:52:48.663Z,28.90
2022-09-07T12:58:50.045Z,29.20
2022-09-07T13:01:40.859Z,29.30
2022-09-07T13:04:56.515Z,29.40
2022-09-07T13:08:19.017Z,29.40
2022-09-07T13:10:47.417Z,29.60
2022-09-07T13:13:14.583Z,29.70
2022-09-07T13:16:15.763Z,29.80
2022-09-07T13:18:46.971Z,29.90
2022-09-07T13:21:15.567Z,30.00
2022-09-07T13:27:11.179Z,30.20
2022-09-07T13:29:41.146Z,30.40
2022-09-07T13:35:19.297Z,30.50
2022-09-07T13:37:58.178Z,30.50
2022-09-07T13:40:45.262Z,30.50
2022-09-07T13:43:20.558Z,30.60
2022-09-07T13:45:53.881Z,30.60
2022-09-07T13:48:47.062Z,30.70
2022-09-07T13:51:43.447Z,30.80
2022-09-07T13:55:02.628Z,30.90
2022-09-07T13:58:11.950Z,30.90
2022-09-07T14:00:54.815Z,31.00
2022-09-07T14:03:25.842Z,31.00
2022-09-07T14:06:20.825Z,31.10
2022-09-07T14:09:04.378Z,31.30
2022-09-07T14:11:56.728Z,31.40
2022-09-07T14:14:30.188Z,31.30
2022-09-07T14:17:00.257Z,31.10
2022-09-07T14:20:05.952Z,31.00
2022-09-07T14:22:35.390Z,30.90
2022-09-07T14:25:07.582Z,30.80
2022-09-07T14:27:44.479Z,30.70
2022-09-07T14:30:24.728Z,30.80
2022-09-07T14:33:17.395Z,31.10
2022-09-07T14:35:44.898Z,31.30
2022-09-07T14:44:01.789Z,31.90
2022-09-07T14:46:36.464Z,31.90
2022-09-07T14:49:20.633Z,31.60
2022-09-07T14:51:49.149Z,31.20
2022-09-07T14:54:21.543Z,30.90
2022-09-07T14:57:18.233Z,30.70
2022-09-07T14:59:48.391Z,30.50
2022-09-07T15:02:31.770Z,30.30
2022-09-07T15:05:41.931Z,30.10
2022-09-07T15:08:35.426Z,29.90
2022-09-07T15:11:38.970Z,29.70
2022-09-07T15:14:19.728Z,29.60
2022-09-07T15:19:50.428Z,29.40
2022-09-07T15:22:19.180Z,29.20
2022-09-07T15:24:50.286Z,29.10
2022-09-07T15:27:27.547Z,29.00
2022-09-07T15:29:54.733Z,28.90
2022-09-07T15:32:22.066Z,28.80
2022-09-07T15:34:49.283Z,28.70
2022-09-07T15:40:16.258Z,28.50
2022-09-07T15:45:30.537Z,28.30
2022-09-07T15:48:00.679Z,28.20
2022-09-07T15:50:27.825Z,28.10
2022-09-07T15:52:55.147Z,28.00
2022-09-07T15:55:25.489Z,27.90
2022-09-07T15:58:05.234Z,27.80
2022-09-07T16:00:41.322Z,27.70
2022-09-07T16:03:09.842Z,27.60
2022-09-07T16:05:44.022Z,27.50
2022-09-07T16:08:32.724Z,27.40
2022-09-07T16:11:11.276Z,27.30
2022-09-07T16:13:47.003Z,27.30
2022-09-07T16:16:18.428Z,27.20
2022-09-07T16:18:47.247Z,27.10
2022-09-07T16:21:16.054Z,27.10
2022-09-07T16:23:47.914Z,27.00
2022-09-07T16:26:16.684Z,26.90
2022-09-07T16:28:47.210Z,26.90
2022-09-07T16:31:22.429Z,26.80
2022-09-07T16:33:52.711Z,26.70
2022-09-07T16:36:23.544Z,26.60
2022-09-07T16:39:00.548Z,26.50
2022-09-07T16:41:32.063Z,26.50
2022-09-07T16:44:02.496Z,26.50
2022-09-07T16:46:30.968Z,26.40
2022-09-07T16:48:58.201Z,26.30
2022-09-07T16:51:25.261Z,26.30
2022-09-07T16:53:55.310Z,26.20
2022-09-07T16:56:29.091Z,26.20
2022-09-07T16:59:02.931Z,26.20
2022-09-07T17:01:36.577Z,26.10
2022-09-07T17:04:09.793Z,26.10
2022-09-07T17:06:39.961Z,26.00
2022-09-07T17:09:07.957Z,26.00
2022-09-07T17:11:37.060Z,26.00
2022-09-07T17:14:07.859Z,26.00
2022-09-07T17:16:39.213Z,25.90
2022-09-07T17:21:55.470Z,25.80
2022-09-07T17:24:24.457Z,25.70
2022-09-07T17:26:51.580Z,25.70
2022-09-07T17:29:22.320Z,25.60
2022-09-07T17:34:39.926Z,25.40
2022-09-07T17:37:10.714Z,25.40
2022-09-07T17:39:38.934Z,25.30
2022-09-07T17:42:06.313Z,25.20
2022-09-07T17:44:38.023Z,25.10
2022-09-07T17:47:06.236Z,25.10
2022-09-07T17:49:33.483Z,25.00
2022-09-07T17:52:01.700Z,24.90
2022-09-07T17:54:29.114Z,24.80
2022-09-07T17:56:56.725Z,24.80
2022-09-07T18:02:14.086Z,24.60
2022-09-07T18:04:41.856Z,24.50
2022-09-07T18:07:09.420Z,24.40
2022-09-07T18:09:37.255Z,24.40
2022-09-07T18:12:07.945Z,24.30
2022-09-07T18:14:35.381Z,24.20
2022-09-07T18:17:02.638Z,24.00
2022-09-07T18:19:29.975Z,24.00
2022-09-07T18:22:02.724Z,23.90
2022-09-07T18:24:30.386Z,23.90
2022-09-07T18:26:57.918Z,23.80
2022-09-07T18:29:33.438Z,23.70
2022-09-07T18:32:09.360Z,23.60
2022-09-07T18:34:41.123Z,23.60
2022-09-07T18:37:12.527Z,23.50
2022-09-07T18:39:40.733Z,23.40
2022-09-07T18:42:09.212Z,23.30
2022-09-07T18:47:28.726Z,23.20
2022-09-07T18:49:59.962Z,23.20
2022-09-07T18:55:16.899Z,23.00
2022-09-07T18:57:44.896Z,23.00
2022-09-07T19:00:14.285Z,22.90
2022-09-07T19:02:42.386Z,22.90
2022-09-07T19:07:59.847Z,22.70
2022-09-07T19:10:27.579Z,22.60
2022-09-07T19:12:55.670Z,22.60
2022-09-07T19:15:24.088Z,22.50
2022-09-07T19:17:51.612Z,22.50
2022-09-07T19:20:19.255Z,22.40
2022-09-07T19:22:46.841Z,22.30
2022-09-07T19:25:14.366Z,22.30
2022-09-07T19:27:45.581Z,22.20
2022-09-07T19:30:13.909Z,22.20
2022-09-07T19:32:45.475Z,22.10
2022-09-07T19:35:16.828Z,22.10
2022-09-07T19:37:44.504Z,22.00
2022-09-07T19:40:19.061Z,22.00
2022-09-07T19:42:48.002Z,21.90
2022-09-07T19:45:18.568Z,21.90
2022-09-07T19:47:46.210Z,21.90
2022-09-07T19:50:13.751Z,21.80
2022-09-07T19:52:41.461Z,21.80
2022-09-07T19:55:10.102Z,21.80
2022-09-07T19:57:38.836Z,21.70
2022-09-07T20:00:07.473Z,21.70
2022-09-07T20:02:38.362Z,21.70
2022-09-07T20:05:06.851Z,21.60
2022-09-07T20:07:34.403Z,21.60
2022-09-07T20:10:02.054Z,21.60
2022-09-07T20:12:35.813Z,21.50
2022-09-07T20:15:03.518Z,21.50
2022-09-07T20:17:35.160Z,21.40
2022-09-07T20:20:03.886Z,21.40
2022-09-07T20:22:31.769Z,21.30
2022-09-07T20:25:02.414Z,21.30
2022-09-07T20:27:36.037Z,21.20
2022-09-07T20:30:04.185Z,21.20
2022-09-07T20:32:31.567Z,21.20
2022-09-07T20:35:02.287Z,21.20
2022-09-07T20:37:30.011Z,21.10
2022-09-07T20:39:57.098Z,21.10
2022-09-07T20:42:24.265Z,21.10
2022-09-07T20:44:51.241Z,21.00
2022-09-07T20:47:18.335Z,21.00
2022-09-07T20:49:45.736Z,21.00
2022-09-07T20:52:15.865Z,20.90
2022-09-07T20:54:42.880Z,20.90
2022-09-07T20:57:10.038Z,20.90
2022-09-07T20:59:37.230Z,20.80
2022-09-07T21:02:10.177Z,20.80
2022-09-07T21:04:37.541Z,20.70
2022-09-07T21:07:04.848Z,20.70
2022-09-07T21:09:31.899Z,20.70
2022-09-07T21:11:58.952Z,20.70
2022-09-07T21:14:26.870Z,20.60
2022-09-07T21:16:54.160Z,20.60
2022-09-07T21:19:21.561Z,20.60
2022-09-07T21:21:48.704Z,20.60
2022-09-07T21:24:22.298Z,20.50
2022-09-07T21:26:51.138Z,20.50
2022-09-07T21:29:25.839Z,20.40
2022-09-07T21:31:56.074Z,20.40
2022-09-07T21:34:26.887Z,20.40
2022-09-07T21:36:53.958Z,20.30
2022-09-07T21:39:21.553Z,20.30
2022-09-07T21:41:49.035Z,20.30
2022-09-07T21:44:17.176Z,20.30
2022-09-07T21:46:44.753Z,20.30
2022-09-07T21:49:12.464Z,20.20
2022-09-07T21:51:39.668Z,20.20
2022-09-07T21:54:07.096Z,20.20
2022-09-07T21:56:37.188Z,20.20
2022-09-07T21:59:09.447Z,20.10
2022-09-07T22:01:36.688Z,20.10
2022-09-07T22:04:07.039Z,20.10
2022-09-07T22:06:35.304Z,20.00
2022-09-07T22:09:03.793Z,20.00
2022-09-07T22:11:31.524Z,20.00
2022-09-07T22:14:04.784Z,20.00
2022-09-07T22:16:34.410Z,20.00
2022-09-07T22:19:01.854Z,19.90
2022-09-07T22:21:30.340Z,19.90
2022-09-07T22:24:04.000Z,19.90
2022-09-07T22:26:37.629Z,19.80
2022-09-07T22:29:06.687Z,19.80
2022-09-07T22:31:36.799Z,19.70
2022-09-07T22:34:08.159Z,19.70
2022-09-07T22:36:42.794Z,19.70
2022-09-07T22:39:17.836Z,19.70
2022-09-07T22:41:47.272Z,19.70
2022-09-07T22:44:18.250Z,19.70
2022-09-07T22:46:47.486Z,19.70
2022-09-07T22:49:16.971Z,19.70
2022-09-07T22:51:44.843Z,19.70
2022-09-07T22:54:12.488Z,19.70
2022-09-07T22:56:40.324Z,19.70
2022-09-07T22:59:09.445Z,19.70
2022-09-07T23:01:37.960Z,19.70
2022-09-07T23:04:06.204Z,19.70
2022-09-07T23:06:37.739Z,19.70
2022-09-07T23:09:15.993Z,19.70
2022-09-07T23:11:44.327Z,19.60
2022-09-07T23:14:19.216Z,19.60
2022-09-07T23:16:46.772Z,19.60
2022-09-07T23:19:19.749Z,19.60
2022-09-07T23:21:47.775Z,19.50
2022-09-07T23:24:18.160Z,19.50
2022-09-07T23:26:48.831Z,19.50
2022-09-07T23:29:16.525Z,19.50
2022-09-07T23:31:45.860Z,19.50
2022-09-07T23:34:13.025Z,19.50
2022-09-07T23:36:40.407Z,19.40
2022-09-07T23:39:08.056Z,19.40
2022-09-07T23:41:35.206Z,19.40
2022-09-07T23:44:02.484Z,19.40
2022-09-07T23:46:29.756Z,19.40
2022-09-07T23:48:57.226Z,19.40
2022-09-07T23:51:24.912Z,19.30
2022-09-07T23:53:53.257Z,19.30
2022-09-07T23:56:21.721Z,19.30
2022-09-07T23:58:52.223Z,19.30
